createdAt,value
2022-07-30T00:00:00.259Z,21.11
2022-07-30T00:03:02.440Z,21.08
2022-07-30T00:06:04.491Z,21.03
2022-07-30T00:09:06.302Z,21.01
2022-07-30T00:12:08.550Z,21.13
2022-07-30T00:15:10.784Z,21.19
2022-07-30T00:18:13.531Z,21.21
2022-07-30T00:21:20.305Z,21.07
2022-07-30T00:24:37.139Z,21.00
2022-07-30T00:27:40.107Z,20.98
2022-07-30T00:30:42.129Z,20.99
2022-07-30T00:33:44.463Z,20.92
2022-07-30T00:36:46.526Z,20.88
2022-07-30T00:39:48.374Z,20.84
2022-07-30T00:42:50.410Z,20.97
2022-07-30T00:45:52.510Z,20.95
2022-07-30T00:48:54.731Z,20.90
2022-07-30T00:51:57.083Z,20.87
2022-07-30T00:55:00.085Z,20.79
2022-07-30T00:58:02.902Z,20.76
2022-07-30T01:01:05.912Z,20.75
2022-07-30T01:04:11.999Z,20.76
2022-07-30T01:07:13.822Z,20.61
2022-07-30T01:10:16.455Z,20.57
2022-07-30T01:13:18.564Z,20.62
2022-07-30T01:16:21.022Z,20.64
2022-07-30T01:19:47.575Z,20.56
2022-07-30T01:23:05.547Z,20.50
2022-07-30T01:26:09.671Z,20.63
2022-07-30T01:29:13.678Z,20.51
2022-07-30T01:32:17.156Z,20.47
2022-07-30T01:35:21.082Z,20.45
2022-07-30T01:38:24.758Z,20.48
2022-07-30T01:41:27.267Z,20.49
2022-07-30T01:44:29.450Z,20.48
2022-07-30T01:47:31.468Z,20.46
2022-07-30T01:50:34.902Z,20.43
2022-07-30T01:53:38.246Z,20.40
2022-07-30T01:56:41.784Z,20.33
2022-07-30T01:59:46.311Z,20.11
2022-07-30T02:02:48.405Z,19.72
2022-07-30T02:05:55.105Z,19.87
2022-07-30T02:08:59.971Z,20.09
2022-07-30T02:12:25.496Z,20.18
2022-07-30T02:16:04.027Z,20.05
2022-07-30T02:19:14.041Z,20.10
2022-07-30T02:22:18.442Z,19.79
2022-07-30T02:25:21.866Z,19.70
2022-07-30T02:28:25.393Z,19.69
2022-07-30T02:31:28.571Z,19.55
2022-07-30T02:34:33.878Z,19.49
2022-07-30T02:37:43.276Z,19.16
2022-07-30T02:40:46.599Z,19.09
2022-07-30T02:43:50.197Z,19.24
2022-07-30T02:46:54.717Z,19.15
2022-07-30T02:50:08.199Z,19.05
2022-07-30T02:53:12.221Z,19.11
2022-07-30T02:56:18.994Z,19.09
2022-07-30T02:59:22.443Z,18.84
2022-07-30T03:02:29.038Z,18.67
2022-07-30T03:05:32.403Z,18.58
2022-07-30T03:08:35.591Z,18.56
2022-07-30T03:11:41.670Z,18.51
2022-07-30T03:14:43.631Z,18.57
2022-07-30T03:17:50.438Z,18.63
2022-07-30T03:20:55.575Z,18.72
2022-07-30T03:24:03.542Z,18.68
2022-07-30T03:27:07.279Z,18.69
2022-07-30T03:30:10.559Z,18.61
2022-07-30T03:33:13.220Z,18.63
2022-07-30T03:36:18.155Z,18.73
2022-07-30T03:39:21.001Z,18.65
2022-07-30T03:42:23.668Z,18.76
2022-07-30T03:45:25.810Z,18.86
2022-07-30T03:48:34.825Z,18.87
2022-07-30T03:51:37.701Z,18.67
2022-07-30T03:54:40.460Z,18.66
2022-07-30T03:58:07.813Z,18.70
2022-07-30T04:01:11.217Z,18.70
2022-07-30T04:04:13.412Z,18.80
2022-07-30T04:07:16.815Z,18.80
2022-07-30T04:10:19.233Z,18.90
2022-07-30T04:13:43.657Z,18.94
2022-07-30T04:17:04.397Z,19.53
2022-07-30T04:20:11.264Z,20.72
2022-07-30T04:23:18.033Z,20.45
2022-07-30T04:26:20.994Z,20.36
2022-07-30T04:29:25.276Z,20.86
2022-07-30T04:32:29.376Z,20.41
2022-07-30T04:35:51.609Z,20.30
2022-07-30T04:39:11.826Z,19.98
2022-07-30T04:42:13.929Z,19.77
2022-07-30T04:45:20.689Z,19.84
2022-07-30T04:48:29.376Z,19.63
2022-07-30T04:51:43.081Z,19.58
2022-07-30T04:54:50.381Z,19.35
2022-07-30T04:57:53.477Z,19.42
2022-07-30T05:00:56.983Z,19.31
2022-07-30T05:04:06.925Z,19.44
2022-07-30T05:07:14.686Z,19.44
2022-07-30T05:10:19.599Z,19.42
2022-07-30T05:13:22.275Z,19.46
2022-07-30T05:16:25.126Z,19.54
2022-07-30T05:19:30.719Z,19.44
2022-07-30T05:22:33.048Z,19.44
2022-07-30T05:25:35.885Z,19.56
2022-07-30T05:28:57.005Z,19.60
2022-07-30T05:32:20.269Z,19.53
2022-07-30T05:35:24.801Z,19.58
2022-07-30T05:38:36.053Z,19.58
2022-07-30T05:41:58.222Z,19.87
2022-07-30T05:45:02.956Z,20.16
2022-07-30T05:48:05.773Z,20.22
2022-07-30T05:51:07.783Z,20.22
2022-07-30T05:54:10.040Z,20.50
2022-07-30T05:57:44.143Z,20.88
2022-07-30T06:00:46.179Z,21.20
2022-07-30T06:03:48.711Z,21.41
2022-07-30T06:07:16.723Z,21.72
2022-07-30T06:10:19.034Z,21.97
2022-07-30T06:13:22.385Z,22.09
2022-07-30T06:16:24.351Z,22.04
2022-07-30T06:19:26.857Z,22.03
2022-07-30T06:22:28.955Z,22.02
2022-07-30T06:25:33.927Z,22.10
2022-07-30T06:28:38.104Z,22.07
2022-07-30T06:31:48.567Z,22.06
2022-07-30T06:35:07.150Z,22.13
2022-07-30T06:38:09.193Z,22.28
2022-07-30T06:41:28.521Z,22.35
2022-07-30T06:44:33.633Z,22.51
2022-07-30T06:47:39.813Z,22.54
2022-07-30T06:50:41.947Z,22.42
2022-07-30T06:53:46.050Z,22.39
2022-07-30T06:56:48.046Z,22.25
2022-07-30T06:59:56.139Z,22.10
2022-07-30T07:03:12.101Z,22.15
2022-07-30T07:06:14.265Z,22.04
2022-07-30T07:09:17.550Z,22.02
2022-07-30T07:12:25.998Z,21.81
2022-07-30T07:15:32.842Z,21.71
2022-07-30T07:18:40.950Z,21.71
2022-07-30T07:21:42.924Z,21.71
2022-07-30T07:24:44.953Z,21.72
2022-07-30T07:28:12.626Z,21.57
2022-07-30T07:32:06.081Z,21.58
2022-07-30T07:34:35.562Z,21.44
2022-07-30T07:37:37.649Z,21.17
2022-07-30T07:40:41.547Z,21.04
2022-07-30T07:43:44.146Z,21.14
2022-07-30T07:47:04.180Z,21.29
2022-07-30T07:50:10.734Z,21.16
2022-07-30T07:53:19.153Z,21.35
2022-07-30T07:56:22.421Z,21.47
2022-07-30T07:59:27.759Z,21.49
2022-07-30T08:02:46.679Z,21.11
2022-07-30T08:06:01.224Z,21.45
2022-07-30T08:09:40.589Z,21.15
2022-07-30T08:12:53.563Z,21.31
2022-07-30T08:16:12.650Z,21.32
2022-07-30T08:19:33.464Z,21.28
2022-07-30T08:22:46.970Z,21.39
2022-07-30T08:25:50.817Z,21.37
2022-07-30T08:28:54.554Z,21.36
2022-07-30T08:31:57.348Z,21.31
2022-07-30T08:35:02.506Z,21.12
2022-07-30T08:38:05.697Z,20.99
2022-07-30T08:41:11.220Z,20.91
2022-07-30T08:44:13.549Z,21.00
2022-07-30T08:47:18.762Z,21.02
2022-07-30T08:50:44.985Z,20.84
2022-07-30T08:54:07.248Z,20.77
2022-07-30T08:57:10.343Z,20.87
2022-07-30T09:00:14.442Z,20.96
2022-07-30T09:03:16.831Z,20.87
2022-07-30T09:06:19.564Z,20.92
2022-07-30T09:09:21.567Z,20.86
2022-07-30T09:12:46.364Z,20.84
2022-07-30T09:15:48.759Z,20.96
2022-07-30T09:18:52.297Z,20.94
2022-07-30T09:22:02.074Z,20.71
2022-07-30T09:25:33.550Z,20.52
2022-07-30T09:28:53.905Z,20.63
2022-07-30T09:32:52.878Z,20.48
2022-07-30T09:36:16.187Z,20.45
2022-07-30T09:39:38.941Z,20.56
2022-07-30T09:43:08.837Z,20.55
2022-07-30T09:46:12.845Z,20.67
2022-07-30T09:49:17.261Z,20.88
2022-07-30T09:52:29.601Z,20.83
2022-07-30T09:55:36.127Z,20.88
2022-07-30T09:58:45.575Z,21.04
2022-07-30T10:01:55.000Z,21.05
2022-07-30T10:05:29.285Z,21.00
2022-07-30T10:08:40.606Z,20.96
2022-07-30T10:11:43.056Z,20.99
2022-07-30T10:14:47.221Z,20.99
2022-07-30T10:17:52.612Z,20.98
2022-07-30T10:21:05.348Z,21.00
2022-07-30T10:24:27.661Z,20.64
2022-07-30T10:27:48.941Z,20.34
2022-07-30T10:31:08.205Z,19.93
2022-07-30T10:34:26.200Z,19.56
2022-07-30T10:37:32.262Z,19.68
2022-07-30T10:40:39.616Z,19.98
2022-07-30T10:43:50.031Z,19.72
2022-07-30T10:47:06.924Z,19.81
2022-07-30T10:50:15.754Z,19.80
2022-07-30T10:53:42.117Z,19.65
2022-07-30T10:57:05.115Z,19.67
2022-07-30T11:00:07.691Z,19.57
2022-07-30T11:03:14.849Z,19.67
2022-07-30T11:06:24.728Z,19.75
2022-07-30T11:09:41.761Z,19.72
2022-07-30T11:12:52.858Z,19.76
2022-07-30T11:15:56.299Z,20.23
2022-07-30T11:19:55.047Z,20.24
2022-07-30T11:22:44.868Z,20.32
2022-07-30T11:25:50.081Z,20.03
2022-07-30T11:28:53.523Z,19.92
2022-07-30T11:32:00.114Z,19.79
2022-07-30T11:35:25.877Z,19.88
2022-07-30T11:38:55.336Z,20.14
2022-07-30T11:42:25.962Z,19.88
2022-07-30T11:45:30.151Z,19.80
2022-07-30T11:48:33.005Z,20.08
2022-07-30T11:51:43.234Z,19.96
2022-07-30T11:54:55.949Z,20.17
2022-07-30T11:57:59.677Z,20.32
2022-07-30T12:01:14.293Z,20.45
2022-07-30T12:04:16.491Z,20.43
2022-07-30T12:07:23.729Z,20.78
2022-07-30T12:10:27.118Z,20.72
2022-07-30T12:13:44.095Z,20.72
2022-07-30T12:16:55.471Z,20.61
2022-07-30T12:19:57.882Z,20.90
2022-07-30T12:23:00.409Z,20.86
2022-07-30T12:26:04.502Z,21.09
2022-07-30T12:29:13.386Z,20.96
2022-07-30T12:32:23.502Z,21.04
2022-07-30T12:35:45.431Z,21.09
2022-07-30T12:38:50.930Z,21.57
2022-07-30T12:41:56.696Z,21.76
2022-07-30T12:45:01.005Z,21.98
2022-07-30T12:48:12.631Z,21.88
2022-07-30T12:51:15.473Z,22.30
2022-07-30T12:54:19.730Z,22.20
2022-07-30T12:57:24.825Z,22.20
2022-07-30T13:00:52.541Z,22.09
2022-07-30T13:03:55.974Z,21.90
2022-07-30T13:07:11.935Z,21.88
2022-07-30T13:10:22.789Z,21.89
2022-07-30T13:13:31.867Z,21.85
2022-07-30T13:16:36.453Z,21.98
2022-07-30T13:19:40.851Z,22.19
2022-07-30T13:22:43.512Z,22.73
2022-07-30T13:25:47.327Z,22.34
2022-07-30T13:28:49.841Z,22.66
2022-07-30T13:31:52.984Z,22.53
2022-07-30T13:34:59.779Z,22.15
2022-07-30T13:38:03.653Z,22.41
2022-07-30T13:41:06.307Z,22.62
2022-07-30T13:44:08.529Z,22.72
2022-07-30T13:47:13.695Z,22.75
2022-07-30T13:50:16.555Z,22.63
2022-07-30T13:53:21.798Z,22.95
2022-07-30T13:56:26.172Z,23.19
2022-07-30T13:59:30.247Z,23.14
2022-07-30T14:02:32.161Z,23.13
2022-07-30T14:05:42.238Z,23.03
2022-07-30T14:08:48.140Z,22.97
2022-07-30T14:11:50.237Z,23.91
2022-07-30T14:14:52.461Z,23.98
2022-07-30T14:17:56.376Z,23.21
2022-07-30T14:20:58.675Z,23.10
2022-07-30T14:24:00.703Z,22.85
2022-07-30T14:27:02.954Z,22.89
2022-07-30T14:30:08.083Z,23.03
2022-07-30T14:33:11.211Z,23.17
2022-07-30T14:36:13.368Z,23.19
2022-07-30T14:39:15.181Z,23.74
2022-07-30T14:42:17.312Z,23.87
2022-07-30T14:45:19.359Z,23.87
2022-07-30T14:48:21.362Z,23.81
2022-07-30T14:51:26.788Z,23.92
2022-07-30T14:54:31.740Z,23.42
2022-07-30T14:57:37.050Z,23.07
2022-07-30T15:00:48.531Z,23.25
2022-07-30T15:03:51.092Z,23.41
2022-07-30T15:06:54.328Z,23.17
2022-07-30T15:09:56.904Z,23.38
2022-07-30T15:12:58.934Z,23.31
2022-07-30T15:16:01.023Z,23.32
2022-07-30T15:19:02.988Z,23.17
2022-07-30T15:22:05.699Z,22.93
2022-07-30T15:25:08.635Z,22.75
2022-07-30T15:28:10.665Z,22.67
2022-07-30T15:31:13.312Z,22.65
2022-07-30T15:34:15.444Z,22.71
2022-07-30T15:37:17.624Z,22.99
2022-07-30T15:40:19.780Z,22.80
2022-07-30T15:43:22.111Z,22.93
2022-07-30T15:46:24.274Z,22.96
2022-07-30T15:49:26.564Z,23.01
2022-07-30T15:52:28.952Z,23.03
2022-07-30T15:55:31.125Z,22.75
2022-07-30T15:58:49.268Z,22.51
2022-07-30T16:01:51.513Z,22.19
2022-07-30T16:04:53.979Z,22.23
2022-07-30T16:07:56.047Z,22.21
2022-07-30T16:10:58.746Z,22.11
2022-07-30T16:14:02.011Z,22.13
2022-07-30T16:17:04.332Z,22.37
2022-07-30T16:20:06.835Z,22.14
2022-07-30T16:23:13.951Z,22.02
2022-07-30T16:26:19.372Z,22.00
2022-07-30T16:29:21.495Z,22.07
2022-07-30T16:32:24.247Z,22.05
2022-07-30T16:35:26.355Z,21.95
2022-07-30T16:38:28.629Z,21.71
2022-07-30T16:41:30.802Z,21.56
2022-07-30T16:44:34.310Z,21.43
2022-07-30T16:47:36.519Z,21.20
2022-07-30T16:50:41.042Z,21.18
2022-07-30T16:53:43.317Z,20.99
2022-07-30T16:56:45.660Z,20.86
2022-07-30T16:59:47.607Z,20.57
2022-07-30T17:02:49.689Z,20.46
2022-07-30T17:05:52.403Z,20.21
2022-07-30T17:08:54.408Z,19.87
2022-07-30T17:11:56.476Z,19.67
2022-07-30T17:15:02.722Z,19.69
2022-07-30T17:18:05.287Z,19.54
2022-07-30T17:21:07.292Z,19.67
2022-07-30T17:24:13.855Z,19.81
2022-07-30T17:27:15.766Z,19.72
2022-07-30T17:30:18.683Z,19.92
2022-07-30T17:33:20.935Z,20.00
2022-07-30T17:36:23.110Z,20.11
2022-07-30T17:40:24.792Z,19.99
2022-07-30T17:42:47.756Z,20.06
2022-07-30T17:45:50.299Z,19.95
2022-07-30T17:48:52.472Z,19.99
2022-07-30T17:51:54.657Z,19.52
2022-07-30T17:54:57.479Z,19.48
2022-07-30T17:57:59.602Z,19.45
2022-07-30T18:01:03.121Z,19.44
2022-07-30T18:04:05.448Z,19.27
2022-07-30T18:07:07.602Z,19.22
2022-07-30T18:10:10.407Z,19.05
2022-07-30T18:13:26.855Z,19.03
2022-07-30T18:16:37.158Z,19.13
2022-07-30T18:19:40.874Z,19.03
2022-07-30T18:22:45.580Z,19.01
2022-07-30T18:25:51.362Z,18.90
2022-07-30T18:28:55.682Z,18.75
2022-07-30T18:31:57.847Z,18.73
2022-07-30T18:35:00.105Z,18.66
2022-07-30T18:38:03.106Z,18.56
2022-07-30T18:41:08.125Z,18.50
2022-07-30T18:44:10.372Z,18.38
2022-07-30T18:47:12.592Z,18.42
2022-07-30T18:50:16.253Z,18.57
2022-07-30T18:53:18.578Z,18.64
2022-07-30T18:56:22.301Z,18.75
2022-07-30T18:59:24.495Z,18.83
2022-07-30T19:02:26.759Z,18.65
2022-07-30T19:05:29.785Z,18.57
2022-07-30T19:08:35.121Z,18.61
2022-07-30T19:11:37.276Z,18.74
2022-07-30T19:14:39.912Z,18.71
2022-07-30T19:17:46.010Z,18.64
2022-07-30T19:20:50.879Z,18.70
2022-07-30T19:23:52.933Z,18.75
2022-07-30T19:26:57.082Z,18.68
2022-07-30T19:29:59.473Z,18.70
2022-07-30T19:33:14.786Z,18.76
2022-07-30T19:36:20.914Z,18.82
2022-07-30T19:39:22.933Z,18.90
2022-07-30T19:42:28.917Z,18.94
2022-07-30T19:45:47.281Z,18.89
2022-07-30T19:48:50.660Z,18.83
2022-07-30T19:52:10.282Z,18.92
2022-07-30T19:55:17.156Z,18.91
2022-07-30T19:58:33.350Z,18.80
2022-07-30T20:01:41.108Z,18.75
2022-07-30T20:04:43.622Z,18.71
2022-07-30T20:07:47.342Z,18.93
2022-07-30T20:10:51.441Z,19.00
2022-07-30T20:13:53.424Z,18.96
2022-07-30T20:16:58.142Z,18.90
2022-07-30T20:20:06.458Z,18.80
2022-07-30T20:23:09.372Z,18.84
2022-07-30T20:26:14.950Z,18.86
2022-07-30T20:29:19.414Z,18.79
2022-07-30T20:32:23.751Z,18.94
2022-07-30T20:35:26.830Z,18.99
2022-07-30T20:38:29.785Z,18.99
2022-07-30T20:41:32.221Z,18.89
2022-07-30T20:44:40.094Z,18.78
2022-07-30T20:47:47.033Z,18.81
2022-07-30T20:50:50.096Z,18.74
2022-07-30T20:53:52.565Z,18.90
2022-07-30T20:56:55.007Z,18.78
2022-07-30T20:59:57.221Z,18.85
2022-07-30T21:03:03.061Z,18.74
2022-07-30T21:06:07.011Z,18.87
2022-07-30T21:09:09.011Z,18.98
2022-07-30T21:12:14.646Z,18.78
2022-07-30T21:15:23.921Z,18.75
2022-07-30T21:18:29.168Z,18.69
2022-07-30T21:21:41.813Z,18.69
2022-07-30T21:24:50.164Z,18.53
2022-07-30T21:27:52.158Z,18.54
2022-07-30T21:30:57.154Z,18.43
2022-07-30T21:33:59.638Z,18.45
2022-07-30T21:37:02.289Z,18.38
2022-07-30T21:40:06.135Z,18.49
2022-07-30T21:43:08.206Z,18.34
2022-07-30T21:46:11.314Z,18.40
2022-07-30T21:49:13.298Z,18.34
2022-07-30T21:52:15.578Z,18.33
2022-07-30T21:55:17.895Z,18.24
2022-07-30T21:58:24.079Z,18.12
2022-07-30T22:01:29.671Z,18.02
2022-07-30T22:04:37.813Z,18.10
2022-07-30T22:07:39.740Z,18.24
2022-07-30T22:10:44.547Z,18.23
2022-07-30T22:13:51.417Z,18.11
2022-07-30T22:16:57.473Z,18.11
2022-07-30T22:19:59.623Z,17.94
2022-07-30T22:23:03.167Z,17.91
2022-07-30T22:26:06.613Z,17.77
2022-07-30T22:29:08.673Z,17.67
2022-07-30T22:32:14.224Z,17.74
2022-07-30T22:35:17.109Z,17.61
2022-07-30T22:38:23.089Z,17.69
2022-07-30T22:41:24.993Z,17.52
2022-07-30T22:44:27.322Z,17.43
2022-07-30T22:47:53.879Z,17.37
2022-07-30T22:50:53.247Z,17.34
2022-07-30T22:54:03.000Z,17.37
2022-07-30T22:57:17.779Z,17.35
2022-07-30T23:00:27.895Z,17.26
2022-07-30T23:03:32.826Z,17.26
2022-07-30T23:06:36.663Z,17.28
2022-07-30T23:09:51.793Z,17.19
2022-07-30T23:12:54.287Z,17.02
2022-07-30T23:15:56.437Z,17.07
2022-07-30T23:19:00.664Z,17.03
2022-07-30T23:22:02.472Z,17.07
2022-07-30T23:25:08.575Z,17.02
2022-07-30T23:28:10.697Z,16.98
2022-07-30T23:31:12.687Z,17.05
2022-07-30T23:34:14.513Z,17.02
2022-07-30T23:37:16.451Z,17.03
2022-07-30T23:40:18.881Z,16.88
2022-07-30T23:43:20.943Z,16.84
2022-07-30T23:46:22.966Z,16.82
2022-07-30T23:49:24.890Z,16.80
2022-07-30T23:52:26.760Z,16.77
2022-07-30T23:55:29.762Z,16.78
2022-07-30T23:58:31.560Z,16.82
